sensor_id;sensor_type;location;lat;lon;timestamp;P1;durP1;ratioP1;P2;durP2;ratioP2
51824;SDS011;37879;52.986;6.282;2023-04-16T00:01:21;40.67;;;17.17;;
51824;SDS011;37879;52.986;6.282;2023-04-16T00:03:47;62.03;;;21.50;;
51824;SDS011;37879;52.986;6.282;2023-04-16T00:06:12;42.55;;;17.67;;
51824;SDS011;37879;52.986;6.282;2023-04-16T00:08:38;54.72;;;22.25;;
51824;SDS011;37879;52.986;6.282;2023-04-16T00:11:05;58.63;;;22.10;;
51824;SDS011;37879;52.986;6.282;2023-04-16T00:13:30;42.42;;;18.20;;
51824;SDS011;37879;52.986;6.282;2023-04-16T00:15:56;65.20;;;23.85;;
51824;SDS011;37879;52.986;6.282;2023-04-16T00:18:23;68.15;;;24.42;;
51824;SDS011;37879;52.986;6.282;2023-04-16T00:20:48;66.93;;;24.33;;
51824;SDS011;37879;52.986;6.282;2023-04-16T00:23:15;76.57;;;26.38;;
51824;SDS011;37879;52.986;6.282;2023-04-16T00:25:41;65.65;;;22.83;;
51824;SDS011;37879;52.986;6.282;2023-04-16T00:28:07;80.55;;;27.92;;
51824;SDS011;37879;52.986;6.282;2023-04-16T00:30:33;70.13;;;23.40;;
51824;SDS011;37879;52.986;6.282;2023-04-16T00:32:59;72.13;;;25.73;;
51824;SDS011;37879;52.986;6.282;2023-04-16T00:35:25;52.33;;;20.65;;
51824;SDS011;37879;52.986;6.282;2023-04-16T00:37:50;60.15;;;24.42;;
51824;SDS011;37879;52.986;6.282;2023-04-16T00:40:16;55.20;;;19.35;;
51824;SDS011;37879;52.986;6.282;2023-04-16T00:42:42;57.40;;;22.60;;
51824;SDS011;37879;52.986;6.282;2023-04-16T00:45:08;79.32;;;25.90;;
51824;SDS011;37879;52.986;6.282;2023-04-16T00:47:34;80.28;;;25.13;;
51824;SDS011;37879;52.986;6.282;2023-04-16T00:50:01;44.53;;;19.55;;
51824;SDS011;37879;52.986;6.282;2023-04-16T00:52:28;55.38;;;23.23;;
51824;SDS011;37879;52.986;6.282;2023-04-16T00:54:55;66.63;;;23.48;;
51824;SDS011;37879;52.986;6.282;2023-04-16T00:57:22;62.83;;;24.17;;
51824;SDS011;37879;52.986;6.282;2023-04-16T00:59:48;58.88;;;23.05;;
51824;SDS011;37879;52.986;6.282;2023-04-16T01:02:14;70.47;;;26.75;;
51824;SDS011;37879;52.986;6.282;2023-04-16T01:04:40;54.45;;;21.50;;
51824;SDS011;37879;52.986;6.282;2023-04-16T01:07:06;50.08;;;20.10;;
51824;SDS011;37879;52.986;6.282;2023-04-16T01:09:32;42.00;;;16.70;;
51824;SDS011;37879;52.986;6.282;2023-04-16T01:11:57;55.78;;;20.27;;
51824;SDS011;37879;52.986;6.282;2023-04-16T01:14:23;53.53;;;21.70;;
51824;SDS011;37879;52.986;6.282;2023-04-16T01:16:49;57.67;;;23.45;;
51824;SDS011;37879;52.986;6.282;2023-04-16T01:19:14;59.95;;;21.50;;
51824;SDS011;37879;52.986;6.282;2023-04-16T01:21:40;49.38;;;20.58;;
51824;SDS011;37879;52.986;6.282;2023-04-16T01:24:06;66.82;;;24.23;;
51824;SDS011;37879;52.986;6.282;2023-04-16T01:26:31;32.15;;;16.27;;
51824;SDS011;37879;52.986;6.282;2023-04-16T01:28:57;56.00;;;21.02;;
51824;SDS011;37879;52.986;6.282;2023-04-16T01:31:24;54.58;;;23.42;;
51824;SDS011;37879;52.986;6.282;2023-04-16T01:33:50;46.45;;;19.27;;
51824;SDS011;37879;52.986;6.282;2023-04-16T01:36:15;59.72;;;22.17;;
51824;SDS011;37879;52.986;6.282;2023-04-16T01:38:41;36.83;;;16.30;;
51824;SDS011;37879;52.986;6.282;2023-04-16T01:41:06;38.50;;;16.30;;
51824;SDS011;37879;52.986;6.282;2023-04-16T01:43:32;52.03;;;19.85;;
51824;SDS011;37879;52.986;6.282;2023-04-16T01:46:12;30.48;;;13.82;;
51824;SDS011;37879;52.986;6.282;2023-04-16T01:49:07;51.75;;;19.75;;
51824;SDS011;37879;52.986;6.282;2023-04-16T01:51:33;51.65;;;19.88;;
51824;SDS011;37879;52.986;6.282;2023-04-16T01:53:58;42.97;;;19.70;;
51824;SDS011;37879;52.986;6.282;2023-04-16T01:56:25;35.38;;;16.02;;
51824;SDS011;37879;52.986;6.282;2023-04-16T01:58:51;51.83;;;21.50;;
51824;SDS011;37879;52.986;6.282;2023-04-16T02:01:17;37.78;;;16.23;;
51824;SDS011;37879;52.986;6.282;2023-04-16T02:03:42;40.85;;;18.00;;
51824;SDS011;37879;52.986;6.282;2023-04-16T02:06:08;56.55;;;22.35;;
51824;SDS011;37879;52.986;6.282;2023-04-16T02:08:34;58.70;;;22.77;;
51824;SDS011;37879;52.986;6.282;2023-04-16T02:10:59;49.83;;;20.95;;
51824;SDS011;37879;52.986;6.282;2023-04-16T02:13:25;37.80;;;17.75;;
51824;SDS011;37879;52.986;6.282;2023-04-16T02:15:51;49.75;;;22.05;;
51824;SDS011;37879;52.986;6.282;2023-04-16T02:18:17;31.80;;;15.18;;
51824;SDS011;37879;52.986;6.282;2023-04-16T02:20:43;43.55;;;18.42;;
51824;SDS011;37879;52.986;6.282;2023-04-16T02:23:10;49.97;;;23.05;;
51824;SDS011;37879;52.986;6.282;2023-04-16T02:25:43;53.08;;;23.58;;
51824;SDS011;37879;52.986;6.282;2023-04-16T02:28:10;27.95;;;13.40;;
51824;SDS011;37879;52.986;6.282;2023-04-16T02:30:38;59.30;;;24.20;;
51824;SDS011;37879;52.986;6.282;2023-04-16T02:33:04;43.45;;;15.20;;
51824;SDS011;37879;52.986;6.282;2023-04-16T02:35:34;49.05;;;20.25;;
51824;SDS011;37879;52.986;6.282;2023-04-16T02:38:01;45.45;;;22.58;;
51824;SDS011;37879;52.986;6.282;2023-04-16T02:40:28;45.42;;;20.50;;
51824;SDS011;37879;52.986;6.282;2023-04-16T02:42:55;44.25;;;20.27;;
51824;SDS011;37879;52.986;6.282;2023-04-16T02:45:21;45.83;;;20.60;;
51824;SDS011;37879;52.986;6.282;2023-04-16T02:47:47;48.00;;;20.98;;
51824;SDS011;37879;52.986;6.282;2023-04-16T02:50:13;50.53;;;21.27;;
51824;SDS011;37879;52.986;6.282;2023-04-16T02:52:39;54.03;;;23.90;;
51824;SDS011;37879;52.986;6.282;2023-04-16T02:55:05;37.95;;;19.08;;
51824;SDS011;37879;52.986;6.282;2023-04-16T02:57:31;47.38;;;19.33;;
51824;SDS011;37879;52.986;6.282;2023-04-16T02:59:57;57.17;;;23.02;;
51824;SDS011;37879;52.986;6.282;2023-04-16T03:02:22;47.10;;;22.05;;
51824;SDS011;37879;52.986;6.282;2023-04-16T03:04:48;47.17;;;18.98;;
51824;SDS011;37879;52.986;6.282;2023-04-16T03:07:13;42.83;;;19.25;;
51824;SDS011;37879;52.986;6.282;2023-04-16T03:09:39;41.85;;;19.45;;
51824;SDS011;37879;52.986;6.282;2023-04-16T03:12:05;36.55;;;15.20;;
51824;SDS011;37879;52.986;6.282;2023-04-16T03:14:31;37.17;;;13.48;;
51824;SDS011;37879;52.986;6.282;2023-04-16T03:16:57;56.22;;;22.95;;
51824;SDS011;37879;52.986;6.282;2023-04-16T03:19:22;30.40;;;12.25;;
51824;SDS011;37879;52.986;6.282;2023-04-16T03:21:48;26.27;;;11.90;;
51824;SDS011;37879;52.986;6.282;2023-04-16T03:24:14;41.97;;;21.33;;
51824;SDS011;37879;52.986;6.282;2023-04-16T03:26:39;41.08;;;19.20;;
51824;SDS011;37879;52.986;6.282;2023-04-16T03:29:05;38.85;;;16.77;;
51824;SDS011;37879;52.986;6.282;2023-04-16T03:31:31;32.90;;;15.50;;
51824;SDS011;37879;52.986;6.282;2023-04-16T03:33:56;54.15;;;21.75;;
51824;SDS011;37879;52.986;6.282;2023-04-16T03:36:22;53.47;;;23.55;;
51824;SDS011;37879;52.986;6.282;2023-04-16T03:38:47;45.03;;;20.30;;
51824;SDS011;37879;52.986;6.282;2023-04-16T03:41:14;43.97;;;19.15;;
51824;SDS011;37879;52.986;6.282;2023-04-16T03:43:40;55.70;;;22.45;;
51824;SDS011;37879;52.986;6.282;2023-04-16T03:46:05;30.83;;;13.35;;
51824;SDS011;37879;52.986;6.282;2023-04-16T03:48:31;31.30;;;15.27;;
51824;SDS011;37879;52.986;6.282;2023-04-16T03:50:57;45.10;;;15.85;;
51824;SDS011;37879;52.986;6.282;2023-04-16T03:53:22;41.92;;;19.17;;
51824;SDS011;37879;52.986;6.282;2023-04-16T03:55:48;48.65;;;20.98;;
51824;SDS011;37879;52.986;6.282;2023-04-16T03:58:18;50.53;;;22.40;;
51824;SDS011;37879;52.986;6.282;2023-04-16T04:00:44;45.40;;;19.58;;
51824;SDS011;37879;52.986;6.282;2023-04-16T04:03:10;39.47;;;18.98;;
51824;SDS011;37879;52.986;6.282;2023-04-16T04:05:38;54.72;;;24.95;;
51824;SDS011;37879;52.986;6.282;2023-04-16T04:08:05;45.15;;;20.65;;
51824;SDS011;37879;52.986;6.282;2023-04-16T04:10:34;62.85;;;22.65;;
51824;SDS011;37879;52.986;6.282;2023-04-16T04:13:04;61.03;;;26.02;;
51824;SDS011;37879;52.986;6.282;2023-04-16T04:15:30;54.75;;;21.83;;
51824;SDS011;37879;52.986;6.282;2023-04-16T04:17:56;57.08;;;25.42;;
51824;SDS011;37879;52.986;6.282;2023-04-16T04:20:22;61.53;;;25.83;;
51824;SDS011;37879;52.986;6.282;2023-04-16T04:22:48;55.28;;;24.70;;
51824;SDS011;37879;52.986;6.282;2023-04-16T04:25:14;57.45;;;26.33;;
51824;SDS011;37879;52.986;6.282;2023-04-16T04:27:40;37.58;;;19.88;;
51824;SDS011;37879;52.986;6.282;2023-04-16T04:30:06;67.80;;;26.38;;
51824;SDS011;37879;52.986;6.282;2023-04-16T04:32:32;56.67;;;23.92;;
51824;SDS011;37879;52.986;6.282;2023-04-16T04:34:59;57.75;;;24.05;;
51824;SDS011;37879;52.986;6.282;2023-04-16T04:37:26;48.90;;;23.40;;
51824;SDS011;37879;52.986;6.282;2023-04-16T04:39:52;50.60;;;20.50;;
51824;SDS011;37879;52.986;6.282;2023-04-16T04:42:17;63.80;;;28.02;;
51824;SDS011;37879;52.986;6.282;2023-04-16T04:44:44;74.80;;;27.42;;
51824;SDS011;37879;52.986;6.282;2023-04-16T04:47:10;56.03;;;23.88;;
51824;SDS011;37879;52.986;6.282;2023-04-16T04:49:36;52.70;;;24.23;;
51824;SDS011;37879;52.986;6.282;2023-04-16T04:52:01;28.40;;;12.68;;
51824;SDS011;37879;52.986;6.282;2023-04-16T04:54:30;54.85;;;24.80;;
51824;SDS011;37879;52.986;6.282;2023-04-16T04:56:57;57.20;;;22.95;;
51824;SDS011;37879;52.986;6.282;2023-04-16T04:59:23;54.08;;;23.38;;
51824;SDS011;37879;52.986;6.282;2023-04-16T05:01:49;65.80;;;24.67;;
51824;SDS011;37879;52.986;6.282;2023-04-16T05:04:14;46.13;;;15.20;;
51824;SDS011;37879;52.986;6.282;2023-04-16T05:06:40;51.92;;;20.67;;
51824;SDS011;37879;52.986;6.282;2023-04-16T05:09:06;34.83;;;15.02;;
51824;SDS011;37879;52.986;6.282;2023-04-16T05:11:39;48.22;;;21.45;;
51824;SDS011;37879;52.986;6.282;2023-04-16T05:14:05;37.85;;;18.38;;
51824;SDS011;37879;52.986;6.282;2023-04-16T05:16:31;54.55;;;22.23;;
51824;SDS011;37879;52.986;6.282;2023-04-16T05:19:00;39.25;;;18.33;;
51824;SDS011;37879;52.986;6.282;2023-04-16T05:21:25;43.53;;;20.90;;
51824;SDS011;37879;52.986;6.282;2023-04-16T05:23:51;35.45;;;18.25;;
51824;SDS011;37879;52.986;6.282;2023-04-16T05:26:17;33.83;;;17.05;;
51824;SDS011;37879;52.986;6.282;2023-04-16T05:28:43;41.70;;;19.58;;
51824;SDS011;37879;52.986;6.282;2023-04-16T05:31:08;46.22;;;21.23;;
51824;SDS011;37879;52.986;6.282;2023-04-16T05:33:34;48.13;;;21.65;;
51824;SDS011;37879;52.986;6.282;2023-04-16T05:35:59;42.50;;;20.83;;
51824;SDS011;37879;52.986;6.282;2023-04-16T05:38:25;42.80;;;19.63;;
51824;SDS011;37879;52.986;6.282;2023-04-16T05:40:51;44.50;;;22.33;;
51824;SDS011;37879;52.986;6.282;2023-04-16T05:43:16;42.35;;;20.95;;
51824;SDS011;37879;52.986;6.282;2023-04-16T05:45:42;47.55;;;20.35;;
51824;SDS011;37879;52.986;6.282;2023-04-16T05:48:07;45.53;;;22.27;;
51824;SDS011;37879;52.986;6.282;2023-04-16T05:50:34;47.75;;;19.48;;
51824;SDS011;37879;52.986;6.282;2023-04-16T05:53:00;30.50;;;14.02;;
51824;SDS011;37879;52.986;6.282;2023-04-16T05:55:26;47.38;;;21.90;;
51824;SDS011;37879;52.986;6.282;2023-04-16T05:57:52;37.00;;;17.38;;
51824;SDS011;37879;52.986;6.282;2023-04-16T06:00:18;42.00;;;19.30;;
51824;SDS011;37879;52.986;6.282;2023-04-16T06:02:43;51.17;;;20.65;;
51824;SDS011;37879;52.986;6.282;2023-04-16T06:05:09;48.03;;;21.17;;
51824;SDS011;37879;52.986;6.282;2023-04-16T06:07:34;45.33;;;19.33;;
51824;SDS011;37879;52.986;6.282;2023-04-16T06:10:00;47.95;;;20.92;;
51824;SDS011;37879;52.986;6.282;2023-04-16T06:12:26;57.05;;;19.70;;
51824;SDS011;37879;52.986;6.282;2023-04-16T06:14:51;36.85;;;14.68;;
51824;SDS011;37879;52.986;6.282;2023-04-16T06:17:17;32.45;;;12.45;;
51824;SDS011;37879;52.986;6.282;2023-04-16T06:19:43;44.20;;;18.58;;
51824;SDS011;37879;52.986;6.282;2023-04-16T06:22:09;47.55;;;18.88;;
51824;SDS011;37879;52.986;6.282;2023-04-16T06:24:35;44.67;;;17.48;;
51824;SDS011;37879;52.986;6.282;2023-04-16T06:27:00;46.10;;;19.13;;
51824;SDS011;37879;52.986;6.282;2023-04-16T06:29:27;24.98;;;8.95;;
51824;SDS011;37879;52.986;6.282;2023-04-16T06:31:53;46.08;;;19.27;;
51824;SDS011;37879;52.986;6.282;2023-04-16T06:34:18;41.15;;;17.33;;
51824;SDS011;37879;52.986;6.282;2023-04-16T06:36:44;51.20;;;19.02;;
51824;SDS011;37879;52.986;6.282;2023-04-16T06:39:10;49.90;;;18.88;;
51824;SDS011;37879;52.986;6.282;2023-04-16T06:41:35;43.38;;;17.98;;
51824;SDS011;37879;52.986;6.282;2023-04-16T06:44:01;32.97;;;13.90;;
51824;SDS011;37879;52.986;6.282;2023-04-16T06:46:27;35.75;;;16.55;;
51824;SDS011;37879;52.986;6.282;2023-04-16T06:48:52;42.33;;;18.83;;
51824;SDS011;37879;52.986;6.282;2023-04-16T06:51:18;43.60;;;20.15;;
51824;SDS011;37879;52.986;6.282;2023-04-16T06:53:44;44.80;;;18.83;;
51824;SDS011;37879;52.986;6.282;2023-04-16T06:56:10;38.80;;;18.20;;
51824;SDS011;37879;52.986;6.282;2023-04-16T06:58:35;46.05;;;18.27;;
51824;SDS011;37879;52.986;6.282;2023-04-16T07:01:01;38.38;;;16.50;;
51824;SDS011;37879;52.986;6.282;2023-04-16T07:03:27;43.80;;;21.65;;
51824;SDS011;37879;52.986;6.282;2023-04-16T07:05:52;39.95;;;19.58;;
51824;SDS011;37879;52.986;6.282;2023-04-16T07:08:18;39.45;;;19.50;;
51824;SDS011;37879;52.986;6.282;2023-04-16T07:10:44;38.63;;;16.73;;
51824;SDS011;37879;52.986;6.282;2023-04-16T07:13:09;45.45;;;18.35;;
51824;SDS011;37879;52.986;6.282;2023-04-16T07:15:35;44.15;;;20.40;;
51824;SDS011;37879;52.986;6.282;2023-04-16T07:18:01;46.40;;;20.98;;
51824;SDS011;37879;52.986;6.282;2023-04-16T07:20:26;35.85;;;18.85;;
51824;SDS011;37879;52.986;6.282;2023-04-16T07:22:52;31.20;;;12.85;;
51824;SDS011;37879;52.986;6.282;2023-04-16T07:25:17;41.42;;;19.52;;
51824;SDS011;37879;52.986;6.282;2023-04-16T07:27:43;39.05;;;18.80;;
51824;SDS011;37879;52.986;6.282;2023-04-16T07:30:09;36.40;;;15.27;;
51824;SDS011;37879;52.986;6.282;2023-04-16T07:32:34;29.90;;;13.32;;
51824;SDS011;37879;52.986;6.282;2023-04-16T07:35:00;46.78;;;20.02;;
51824;SDS011;37879;52.986;6.282;2023-04-16T07:37:27;44.03;;;21.38;;
51824;SDS011;37879;52.986;6.282;2023-04-16T07:39:53;42.13;;;18.73;;
51824;SDS011;37879;52.986;6.282;2023-04-16T07:42:21;26.17;;;12.15;;
51824;SDS011;37879;52.986;6.282;2023-04-16T07:44:47;27.98;;;12.18;;
51824;SDS011;37879;52.986;6.282;2023-04-16T07:47:12;44.70;;;17.95;;
51824;SDS011;37879;52.986;6.282;2023-04-16T07:49:38;39.95;;;18.73;;
51824;SDS011;37879;52.986;6.282;2023-04-16T07:52:03;40.75;;;17.45;;
51824;SDS011;37879;52.986;6.282;2023-04-16T07:54:30;33.83;;;16.17;;
51824;SDS011;37879;52.986;6.282;2023-04-16T07:56:55;31.98;;;17.42;;
51824;SDS011;37879;52.986;6.282;2023-04-16T07:59:21;32.58;;;16.67;;
51824;SDS011;37879;52.986;6.282;2023-04-16T08:01:46;19.25;;;8.40;;
51824;SDS011;37879;52.986;6.282;2023-04-16T08:04:12;18.55;;;9.35;;
51824;SDS011;37879;52.986;6.282;2023-04-16T08:06:38;35.97;;;17.17;;
51824;SDS011;37879;52.986;6.282;2023-04-16T08:09:03;29.95;;;16.38;;
51824;SDS011;37879;52.986;6.282;2023-04-16T08:11:29;32.38;;;16.23;;
51824;SDS011;37879;52.986;6.282;2023-04-16T08:13:55;38.05;;;16.45;;
51824;SDS011;37879;52.986;6.282;2023-04-16T08:16:20;28.10;;;13.20;;
51824;SDS011;37879;52.986;6.282;2023-04-16T08:18:46;29.98;;;15.38;;
51824;SDS011;37879;52.986;6.282;2023-04-16T08:21:12;32.78;;;15.93;;
51824;SDS011;37879;52.986;6.282;2023-04-16T08:23:37;36.08;;;16.05;;
51824;SDS011;37879;52.986;6.282;2023-04-16T08:26:03;33.03;;;15.55;;
51824;SDS011;37879;52.986;6.282;2023-04-16T08:28:28;26.42;;;10.50;;
51824;SDS011;37879;52.986;6.282;2023-04-16T08:30:54;23.73;;;14.73;;
51824;SDS011;37879;52.986;6.282;2023-04-16T08:33:20;26.73;;;14.15;;
51824;SDS011;37879;52.986;6.282;2023-04-16T08:35:45;27.27;;;14.93;;
51824;SDS011;37879;52.986;6.282;2023-04-16T08:38:11;25.85;;;12.05;;
51824;SDS011;37879;52.986;6.282;2023-04-16T08:40:37;22.67;;;11.38;;
51824;SDS011;37879;52.986;6.282;2023-04-16T08:43:04;26.35;;;15.23;;
51824;SDS011;37879;52.986;6.282;2023-04-16T08:45:37;30.60;;;15.40;;
51824;SDS011;37879;52.986;6.282;2023-04-16T08:48:06;29.13;;;14.48;;
51824;SDS011;37879;52.986;6.282;2023-04-16T08:50:35;30.05;;;15.02;;
51824;SDS011;37879;52.986;6.282;2023-04-16T08:53:05;27.63;;;13.57;;
51824;SDS011;37879;52.986;6.282;2023-04-16T08:55:38;27.90;;;14.05;;
51824;SDS011;37879;52.986;6.282;2023-04-16T08:58:07;23.92;;;14.55;;
51824;SDS011;37879;52.986;6.282;2023-04-16T09:00:36;25.35;;;12.52;;
51824;SDS011;37879;52.986;6.282;2023-04-16T09:03:05;22.33;;;10.45;;
51824;SDS011;37879;52.986;6.282;2023-04-16T09:05:31;27.42;;;15.27;;
51824;SDS011;37879;52.986;6.282;2023-04-16T09:07:57;26.52;;;13.23;;
51824;SDS011;37879;52.986;6.282;2023-04-16T09:10:24;27.45;;;13.27;;
51824;SDS011;37879;52.986;6.282;2023-04-16T09:12:50;36.75;;;17.00;;
51824;SDS011;37879;52.986;6.282;2023-04-16T09:15:16;19.35;;;9.98;;
51824;SDS011;37879;52.986;6.282;2023-04-16T09:17:44;27.73;;;13.05;;
51824;SDS011;37879;52.986;6.282;2023-04-16T09:20:10;24.15;;;13.57;;
51824;SDS011;37879;52.986;6.282;2023-04-16T09:22:37;26.55;;;13.02;;
51824;SDS011;37879;52.986;6.282;2023-04-16T09:25:06;26.05;;;12.90;;
51824;SDS011;37879;52.986;6.282;2023-04-16T09:27:32;26.02;;;14.25;;
51824;SDS011;37879;52.986;6.282;2023-04-16T09:29:58;23.13;;;13.57;;
51824;SDS011;37879;52.986;6.282;2023-04-16T09:32:27;27.95;;;15.25;;
51824;SDS011;37879;52.986;6.282;2023-04-16T09:34:54;23.30;;;13.40;;
51824;SDS011;37879;52.986;6.282;2023-04-16T09:37:21;23.20;;;13.52;;
51824;SDS011;37879;52.986;6.282;2023-04-16T09:39:54;31.42;;;14.75;;
51824;SDS011;37879;52.986;6.282;2023-04-16T09:42:39;34.33;;;14.90;;
51824;SDS011;37879;52.986;6.282;2023-04-16T09:45:05;29.30;;;13.98;;
51824;SDS011;37879;52.986;6.282;2023-04-16T09:47:38;23.08;;;13.45;;
51824;SDS011;37879;52.986;6.282;2023-04-16T09:50:06;23.23;;;11.23;;
51824;SDS011;37879;52.986;6.282;2023-04-16T09:52:35;23.65;;;12.70;;
51824;SDS011;37879;52.986;6.282;2023-04-16T09:55:05;25.55;;;12.63;;
51824;SDS011;37879;52.986;6.282;2023-04-16T09:57:30;24.23;;;13.20;;
51824;SDS011;37879;52.986;6.282;2023-04-16T10:00:06;22.85;;;12.02;;
51824;SDS011;37879;52.986;6.282;2023-04-16T10:02:33;21.00;;;12.32;;
51824;SDS011;37879;52.986;6.282;2023-04-16T10:05:02;25.58;;;12.32;;
51824;SDS011;37879;52.986;6.282;2023-04-16T10:07:28;23.25;;;12.73;;
51824;SDS011;37879;52.986;6.282;2023-04-16T10:09:58;23.60;;;13.25;;
51824;SDS011;37879;52.986;6.282;2023-04-16T10:12:24;23.85;;;12.48;;
51824;SDS011;37879;52.986;6.282;2023-04-16T10:14:49;24.50;;;12.40;;
51824;SDS011;37879;52.986;6.282;2023-04-16T10:17:15;25.70;;;12.38;;
51824;SDS011;37879;52.986;6.282;2023-04-16T10:19:41;19.65;;;12.57;;
51824;SDS011;37879;52.986;6.282;2023-04-16T10:22:07;22.42;;;13.32;;
51824;SDS011;37879;52.986;6.282;2023-04-16T10:24:33;24.10;;;14.10;;
51824;SDS011;37879;52.986;6.282;2023-04-16T10:26:59;22.10;;;11.93;;
51824;SDS011;37879;52.986;6.282;2023-04-16T10:29:26;24.17;;;13.40;;
51824;SDS011;37879;52.986;6.282;2023-04-16T10:31:54;20.98;;;13.68;;
51824;SDS011;37879;52.986;6.282;2023-04-16T10:34:21;25.75;;;13.45;;
51824;SDS011;37879;52.986;6.282;2023-04-16T10:36:48;23.98;;;13.70;;
51824;SDS011;37879;52.986;6.282;2023-04-16T10:39:18;22.95;;;13.52;;
51824;SDS011;37879;52.986;6.282;2023-04-16T10:41:45;24.67;;;13.45;;
51824;SDS011;37879;52.986;6.282;2023-04-16T10:44:11;24.02;;;13.48;;
51824;SDS011;37879;52.986;6.282;2023-04-16T10:46:43;23.83;;;13.85;;
51824;SDS011;37879;52.986;6.282;2023-04-16T10:49:17;22.40;;;14.52;;
51824;SDS011;37879;52.986;6.282;2023-04-16T10:51:57;26.30;;;14.45;;
51824;SDS011;37879;52.986;6.282;2023-04-16T10:54:30;23.85;;;13.80;;
51824;SDS011;37879;52.986;6.282;2023-04-16T10:56:57;14.70;;;9.70;;
51824;SDS011;37879;52.986;6.282;2023-04-16T10:59:29;19.40;;;11.90;;
51824;SDS011;37879;52.986;6.282;2023-04-16T11:01:57;18.85;;;12.50;;
51824;SDS011;37879;52.986;6.282;2023-04-16T11:04:26;28.85;;;14.85;;
51824;SDS011;37879;52.986;6.282;2023-04-16T11:07:03;23.38;;;14.00;;
51824;SDS011;37879;52.986;6.282;2023-04-16T11:12:40;13.00;;;6.60;;
51824;SDS011;37879;52.986;6.282;2023-04-16T11:15:07;20.67;;;11.20;;
51824;SDS011;37879;52.986;6.282;2023-04-16T11:20:07;26.77;;;15.18;;
51824;SDS011;37879;52.986;6.282;2023-04-16T11:22:35;22.90;;;14.80;;
51824;SDS011;37879;52.986;6.282;2023-04-16T11:25:01;24.17;;;14.38;;
51824;SDS011;37879;52.986;6.282;2023-04-16T11:27:28;18.92;;;12.40;;
51824;SDS011;37879;52.986;6.282;2023-04-16T11:29:57;22.83;;;13.98;;
51824;SDS011;37879;52.986;6.282;2023-04-16T11:32:34;21.75;;;13.43;;
51824;SDS011;37879;52.986;6.282;2023-04-16T11:35:01;24.70;;;12.32;;
51824;SDS011;37879;52.986;6.282;2023-04-16T11:37:32;24.27;;;12.57;;
51824;SDS011;37879;52.986;6.282;2023-04-16T11:39:59;24.27;;;13.10;;
51824;SDS011;37879;52.986;6.282;2023-04-16T11:42:25;28.20;;;14.18;;
51824;SDS011;37879;52.986;6.282;2023-04-16T11:44:56;32.17;;;14.23;;
51824;SDS011;37879;52.986;6.282;2023-04-16T11:47:24;26.83;;;13.63;;
51824;SDS011;37879;52.986;6.282;2023-04-16T11:49:51;26.63;;;13.82;;
51824;SDS011;37879;52.986;6.282;2023-04-16T11:52:32;24.10;;;13.18;;
51824;SDS011;37879;52.986;6.282;2023-04-16T11:54:58;19.67;;;9.00;;
51824;SDS011;37879;52.986;6.282;2023-04-16T11:57:25;25.73;;;14.48;;
51824;SDS011;37879;52.986;6.282;2023-04-16T11:59:51;25.65;;;14.00;;
51824;SDS011;37879;52.986;6.282;2023-04-16T12:02:32;24.73;;;13.48;;
51824;SDS011;37879;52.986;6.282;2023-04-16T12:05:06;16.63;;;9.40;;
51824;SDS011;37879;52.986;6.282;2023-04-16T12:07:52;15.90;;;9.15;;
51824;SDS011;37879;52.986;6.282;2023-04-16T12:10:17;26.65;;;15.20;;
51824;SDS011;37879;52.986;6.282;2023-04-16T12:12:43;22.35;;;14.05;;
51824;SDS011;37879;52.986;6.282;2023-04-16T12:15:09;33.97;;;16.38;;
51824;SDS011;37879;52.986;6.282;2023-04-16T12:17:37;24.50;;;14.43;;
51824;SDS011;37879;52.986;6.282;2023-04-16T12:20:07;30.85;;;14.40;;
51824;SDS011;37879;52.986;6.282;2023-04-16T12:22:34;33.45;;;16.00;;
51824;SDS011;37879;52.986;6.282;2023-04-16T12:25:02;22.92;;;13.77;;
51824;SDS011;37879;52.986;6.282;2023-04-16T12:30:16;24.15;;;15.35;;
51824;SDS011;37879;52.986;6.282;2023-04-16T12:32:43;30.33;;;15.13;;
51824;SDS011;37879;52.986;6.282;2023-04-16T12:35:12;21.13;;;10.88;;
51824;SDS011;37879;52.986;6.282;2023-04-16T12:37:38;22.35;;;12.07;;
51824;SDS011;37879;52.986;6.282;2023-04-16T12:40:04;23.50;;;14.57;;
51824;SDS011;37879;52.986;6.282;2023-04-16T12:42:31;26.45;;;15.48;;
51824;SDS011;37879;52.986;6.282;2023-04-16T12:45:04;22.90;;;14.95;;
51824;SDS011;37879;52.986;6.282;2023-04-16T12:47:31;22.48;;;14.50;;
51824;SDS011;37879;52.986;6.282;2023-04-16T12:49:57;24.00;;;13.88;;
51824;SDS011;37879;52.986;6.282;2023-04-16T12:52:26;25.00;;;15.55;;
51824;SDS011;37879;52.986;6.282;2023-04-16T12:54:51;21.08;;;13.27;;
51824;SDS011;37879;52.986;6.282;2023-04-16T12:57:17;22.73;;;11.60;;
51824;SDS011;37879;52.986;6.282;2023-04-16T12:59:43;20.27;;;10.63;;
51824;SDS011;37879;52.986;6.282;2023-04-16T13:02:11;22.92;;;12.20;;
51824;SDS011;37879;52.986;6.282;2023-04-16T13:04:37;23.17;;;13.05;;
51824;SDS011;37879;52.986;6.282;2023-04-16T13:07:02;18.30;;;9.77;;
51824;SDS011;37879;52.986;6.282;2023-04-16T13:09:28;22.00;;;14.98;;
51824;SDS011;37879;52.986;6.282;2023-04-16T13:11:54;21.83;;;14.35;;
51824;SDS011;37879;52.986;6.282;2023-04-16T13:14:19;23.42;;;13.68;;
51824;SDS011;37879;52.986;6.282;2023-04-16T13:16:45;20.85;;;13.32;;
51824;SDS011;37879;52.986;6.282;2023-04-16T13:19:11;22.48;;;13.35;;
51824;SDS011;37879;52.986;6.282;2023-04-16T13:21:37;21.08;;;13.65;;
51824;SDS011;37879;52.986;6.282;2023-04-16T13:24:03;21.52;;;13.80;;
51824;SDS011;37879;52.986;6.282;2023-04-16T13:26:28;23.85;;;14.13;;
51824;SDS011;37879;52.986;6.282;2023-04-16T13:28:54;23.92;;;11.90;;
51824;SDS011;37879;52.986;6.282;2023-04-16T13:31:20;22.63;;;13.35;;
51824;SDS011;37879;52.986;6.282;2023-04-16T13:33:46;23.75;;;13.50;;
51824;SDS011;37879;52.986;6.282;2023-04-16T13:36:12;25.20;;;14.30;;
51824;SDS011;37879;52.986;6.282;2023-04-16T13:38:38;22.95;;;11.07;;
51824;SDS011;37879;52.986;6.282;2023-04-16T13:41:04;24.30;;;11.30;;
51824;SDS011;37879;52.986;6.282;2023-04-16T13:43:30;23.02;;;14.10;;
51824;SDS011;37879;52.986;6.282;2023-04-16T13:45:57;25.70;;;14.18;;
51824;SDS011;37879;52.986;6.282;2023-04-16T13:48:23;21.17;;;14.25;;
51824;SDS011;37879;52.986;6.282;2023-04-16T13:50:48;11.80;;;7.40;;
51824;SDS011;37879;52.986;6.282;2023-04-16T13:53:14;21.02;;;14.20;;
51824;SDS011;37879;52.986;6.282;2023-04-16T13:55:41;23.30;;;13.38;;
51824;SDS011;37879;52.986;6.282;2023-04-16T13:58:07;11.38;;;7.70;;
51824;SDS011;37879;52.986;6.282;2023-04-16T14:00:32;18.45;;;11.05;;
51824;SDS011;37879;52.986;6.282;2023-04-16T14:02:58;22.88;;;13.90;;
51824;SDS011;37879;52.986;6.282;2023-04-16T14:05:24;21.23;;;13.68;;
51824;SDS011;37879;52.986;6.282;2023-04-16T14:07:50;18.10;;;11.82;;
51824;SDS011;37879;52.986;6.282;2023-04-16T14:10:16;15.70;;;8.40;;
51824;SDS011;37879;52.986;6.282;2023-04-16T14:12:42;24.23;;;13.52;;
51824;SDS011;37879;52.986;6.282;2023-04-16T14:15:09;22.67;;;11.75;;
51824;SDS011;37879;52.986;6.282;2023-04-16T14:17:35;20.90;;;12.68;;
51824;SDS011;37879;52.986;6.282;2023-04-16T14:20:02;21.17;;;10.55;;
51824;SDS011;37879;52.986;6.282;2023-04-16T14:22:29;21.10;;;11.85;;
51824;SDS011;37879;52.986;6.282;2023-04-16T14:24:55;19.35;;;12.52;;
51824;SDS011;37879;52.986;6.282;2023-04-16T14:27:20;16.23;;;11.35;;